createdAt,value
2023-02-20T00:00:36.991Z,5.60
2023-02-20T00:03:04.553Z,5.61
2023-02-20T00:05:31.163Z,5.62
2023-02-20T00:07:58.089Z,5.64
2023-02-20T00:10:24.877Z,5.66
2023-02-20T00:12:52.533Z,5.66
2023-02-20T00:15:20.963Z,5.67
2023-02-20T00:17:47.907Z,5.67
2023-02-20T00:20:19.460Z,5.68
2023-02-20T00:22:46.058Z,5.67
2023-02-20T00:25:13.318Z,5.68
2023-02-20T00:27:39.839Z,5.69
2023-02-20T00:30:07.450Z,5.70
2023-02-20T00:32:34.072Z,5.71
2023-02-20T00:35:00.629Z,5.71
2023-02-20T00:37:27.205Z,5.72
2023-02-20T00:39:53.708Z,5.74
2023-02-20T00:42:20.210Z,5.74
2023-02-20T00:44:46.734Z,5.76
2023-02-20T00:47:13.295Z,5.75
2023-02-20T00:49:39.783Z,5.75
2023-02-20T00:52:06.290Z,5.75
2023-02-20T00:54:32.804Z,5.75
2023-02-20T00:56:59.293Z,5.73
2023-02-20T00:59:25.799Z,5.72
2023-02-20T01:01:52.526Z,5.72
2023-02-20T01:04:19.717Z,5.71
2023-02-20T01:06:46.314Z,5.71
2023-02-20T01:09:13.744Z,5.69
2023-02-20T01:11:43.441Z,5.69
2023-02-20T01:14:10.029Z,5.68
2023-02-20T01:16:36.538Z,5.67
2023-02-20T01:19:03.561Z,5.68
2023-02-20T01:21:30.123Z,5.68
2023-02-20T01:23:56.701Z,5.68
2023-02-20T01:26:23.304Z,5.66
2023-02-20T01:28:49.814Z,5.65
2023-02-20T01:31:16.710Z,5.63
2023-02-20T01:33:43.762Z,5.62
2023-02-20T01:36:11.384Z,5.61
2023-02-20T01:38:40.804Z,5.60
2023-02-20T01:41:09.784Z,5.59
2023-02-20T01:43:36.904Z,5.59
2023-02-20T01:46:28.076Z,5.55
2023-02-20T01:49:09.908Z,5.55
2023-02-20T01:51:41.648Z,5.54
2023-02-20T01:54:13.708Z,5.53
2023-02-20T01:56:44.056Z,5.54
2023-02-20T01:59:11.994Z,5.55
2023-02-20T02:01:39.295Z,5.54
2023-02-20T02:04:10.526Z,5.56
2023-02-20T02:06:43.969Z,5.58
2023-02-20T02:09:23.766Z,5.58
2023-02-20T02:11:50.703Z,5.61
2023-02-20T02:14:17.504Z,5.65
2023-02-20T02:16:58.720Z,5.67
2023-02-20T02:19:34.135Z,5.71
2023-02-20T02:22:26.755Z,5.74
2023-02-20T02:25:32.931Z,5.78
2023-02-20T02:28:44.489Z,5.82
2023-02-20T02:31:11.044Z,5.83
2023-02-20T02:34:14.512Z,5.84
2023-02-20T02:37:01.065Z,5.90
2023-02-20T02:39:30.154Z,5.91
2023-02-20T02:42:08.865Z,5.95
2023-02-20T02:45:03.097Z,5.98
2023-02-20T02:47:48.562Z,6.02
2023-02-20T02:50:23.843Z,6.09
2023-02-20T02:52:53.986Z,6.10
2023-02-20T02:55:25.020Z,6.14
2023-02-20T02:57:51.867Z,6.18
2023-02-20T03:00:49.501Z,6.21
2023-02-20T03:03:34.544Z,6.26
2023-02-20T03:06:09.256Z,6.30
2023-02-20T03:08:57.785Z,6.33
2023-02-20T03:11:29.072Z,6.37
2023-02-20T03:14:22.938Z,6.41
2023-02-20T03:17:26.513Z,6.47
2023-02-20T03:19:56.528Z,6.47
2023-02-20T03:22:46.530Z,6.50
2023-02-20T03:25:26.009Z,6.54
2023-02-20T03:28:01.759Z,6.58
2023-02-20T03:30:38.454Z,6.63
2023-02-20T03:33:40.543Z,6.63
2023-02-20T03:36:31.819Z,6.64
2023-02-20T03:39:23.760Z,6.69
2023-02-20T03:42:10.865Z,6.72
2023-02-20T03:44:38.648Z,6.76
2023-02-20T03:47:10.846Z,6.76
2023-02-20T03:49:42.839Z,6.78
2023-02-20T03:52:11.066Z,6.78
2023-02-20T03:54:39.708Z,6.79
2023-02-20T03:57:16.897Z,6.80
2023-02-20T03:59:58.762Z,6.83
2023-02-20T04:02:39.211Z,6.86
2023-02-20T04:05:13.495Z,6.91
2023-02-20T04:07:55.290Z,6.91
2023-02-20T04:10:30.977Z,6.93
2023-02-20T04:13:00.965Z,6.93
2023-02-20T04:15:28.933Z,6.94
2023-02-20T04:18:11.065Z,6.94
2023-02-20T04:20:38.163Z,6.96
2023-02-20T04:23:13.381Z,6.99
2023-02-20T04:25:49.230Z,7.01
2023-02-20T04:28:17.538Z,7.04
2023-02-20T04:30:44.272Z,7.06
2023-02-20T04:33:13.559Z,7.06
2023-02-20T04:35:40.809Z,7.08
2023-02-20T04:38:08.461Z,7.08
2023-02-20T04:40:35.073Z,7.08
2023-02-20T04:43:01.805Z,7.09
2023-02-20T04:45:28.407Z,7.10
2023-02-20T04:47:55.594Z,7.10
2023-02-20T04:50:24.504Z,7.13
2023-02-20T04:52:51.178Z,7.16
2023-02-20T04:55:18.128Z,7.16
2023-02-20T04:57:44.683Z,7.15
2023-02-20T05:00:12.659Z,7.16
2023-02-20T05:02:40.859Z,7.15
2023-02-20T05:05:19.277Z,7.18
2023-02-20T05:07:45.946Z,7.21
2023-02-20T05:10:18.173Z,7.21
2023-02-20T05:12:44.691Z,7.21
2023-02-20T05:15:11.353Z,7.22
2023-02-20T05:17:37.882Z,7.23
2023-02-20T05:20:06.843Z,7.24
2023-02-20T05:22:33.425Z,7.25
2023-02-20T05:25:00.045Z,7.26
2023-02-20T05:27:27.844Z,7.27
2023-02-20T05:29:57.182Z,7.29
2023-02-20T05:32:29.774Z,7.29
2023-02-20T05:34:57.049Z,7.28
2023-02-20T05:37:25.265Z,7.30
2023-02-20T05:39:52.072Z,7.30
2023-02-20T05:42:19.769Z,7.30
2023-02-20T05:44:46.334Z,7.31
2023-02-20T05:47:12.866Z,7.33
2023-02-20T05:49:39.494Z,7.38
2023-02-20T05:52:11.789Z,7.38
2023-02-20T05:54:39.878Z,7.40
2023-02-20T05:57:07.166Z,7.41
2023-02-20T05:59:33.735Z,7.39
2023-02-20T06:02:01.126Z,7.42
2023-02-20T06:04:28.435Z,7.43
2023-02-20T06:06:54.984Z,7.44
2023-02-20T06:09:21.544Z,7.43
2023-02-20T06:11:50.904Z,7.46
2023-02-20T06:14:19.748Z,7.48
2023-02-20T06:16:46.709Z,7.47
2023-02-20T06:19:20.080Z,7.48
2023-02-20T06:21:47.145Z,7.49
2023-02-20T06:24:13.997Z,7.49
2023-02-20T06:26:42.088Z,7.49
2023-02-20T06:29:08.879Z,7.50
2023-02-20T06:31:35.928Z,7.53
2023-02-20T06:34:02.712Z,7.55
2023-02-20T06:36:35.666Z,7.53
2023-02-20T06:39:04.083Z,7.56
2023-02-20T06:41:30.669Z,7.54
2023-02-20T06:43:57.298Z,7.54
2023-02-20T06:46:24.563Z,7.58
2023-02-20T06:48:54.644Z,7.57
2023-02-20T06:51:25.015Z,7.57
2023-02-20T06:53:51.665Z,7.59
2023-02-20T06:56:22.212Z,7.59
2023-02-20T06:58:50.974Z,7.60
2023-02-20T07:01:19.667Z,7.59
2023-02-20T07:03:48.841Z,7.60
2023-02-20T07:06:16.840Z,7.60
2023-02-20T07:08:43.957Z,7.60
2023-02-20T07:11:12.320Z,7.62
2023-02-20T07:13:39.673Z,7.64
2023-02-20T07:16:06.412Z,7.65
2023-02-20T07:18:32.964Z,7.66
2023-02-20T07:20:59.593Z,7.68
2023-02-20T07:23:26.180Z,7.69
2023-02-20T07:25:53.006Z,7.70
2023-02-20T07:28:20.682Z,7.71
2023-02-20T07:30:50.563Z,7.72
2023-02-20T07:33:18.662Z,7.73
2023-02-20T07:35:46.254Z,7.74
2023-02-20T07:38:12.870Z,7.75
2023-02-20T07:40:40.181Z,7.77
2023-02-20T07:43:07.094Z,7.78
2023-02-20T07:45:34.338Z,7.81
2023-02-20T07:48:00.927Z,7.84
2023-02-20T07:50:27.562Z,7.83
2023-02-20T07:52:54.169Z,7.83
2023-02-20T07:55:20.889Z,7.85
2023-02-20T07:57:51.267Z,7.87
2023-02-20T08:00:20.041Z,7.90
2023-02-20T08:02:47.028Z,7.91
2023-02-20T08:05:13.931Z,7.94
2023-02-20T08:07:45.554Z,7.95
2023-02-20T08:10:13.479Z,7.98
2023-02-20T08:12:40.131Z,7.99
2023-02-20T08:15:07.086Z,8.02
2023-02-20T08:17:45.511Z,8.05
2023-02-20T08:20:15.210Z,8.09
2023-02-20T08:22:42.450Z,8.12
2023-02-20T08:25:09.364Z,8.17
2023-02-20T08:27:39.182Z,8.19
2023-02-20T08:30:06.956Z,8.24
2023-02-20T08:32:33.631Z,8.24
2023-02-20T08:35:00.241Z,8.26
2023-02-20T08:37:26.819Z,8.27
2023-02-20T08:39:53.370Z,8.32
2023-02-20T08:42:19.879Z,8.35
2023-02-20T08:44:46.489Z,8.35
2023-02-20T08:47:13.066Z,8.39
2023-02-20T08:49:39.579Z,8.42
2023-02-20T08:52:06.331Z,8.43
2023-02-20T08:54:32.975Z,8.46
2023-02-20T08:56:59.519Z,8.47
2023-02-20T08:59:26.134Z,8.49
2023-02-20T09:01:52.705Z,8.51
2023-02-20T09:04:20.871Z,8.51
2023-02-20T09:06:47.406Z,8.52
2023-02-20T09:09:13.985Z,8.48
2023-02-20T09:11:40.713Z,8.51
2023-02-20T09:14:07.389Z,8.50
2023-02-20T09:16:33.955Z,8.51
2023-02-20T09:19:01.072Z,8.53
2023-02-20T09:21:30.753Z,8.52
2023-02-20T09:23:57.269Z,8.50
2023-02-20T09:26:23.788Z,8.51
2023-02-20T09:28:50.309Z,8.50
2023-02-20T09:31:17.018Z,8.48
2023-02-20T09:33:51.108Z,8.50
2023-02-20T09:36:18.211Z,8.49
2023-02-20T09:38:45.037Z,8.50
2023-02-20T09:41:40.860Z,8.53
2023-02-20T09:44:14.978Z,8.57
2023-02-20T09:46:47.237Z,8.61
2023-02-20T09:49:30.269Z,8.60
2023-02-20T09:52:04.906Z,8.64
2023-02-20T09:54:40.837Z,8.65
2023-02-20T09:57:15.108Z,8.66
2023-02-20T09:59:50.653Z,8.66
2023-02-20T10:02:37.703Z,8.67
2023-02-20T10:05:19.314Z,8.69
2023-02-20T10:07:50.033Z,8.72
2023-02-20T10:10:25.118Z,8.74
2023-02-20T10:13:15.855Z,8.75
2023-02-20T10:16:17.449Z,8.77
2023-02-20T10:19:15.352Z,8.81
2023-02-20T10:22:13.680Z,8.82
2023-02-20T10:25:09.627Z,8.84
2023-02-20T10:27:51.748Z,8.85
2023-02-20T10:30:42.861Z,8.88
2023-02-20T10:33:30.834Z,8.91
2023-02-20T10:36:23.789Z,8.88
2023-02-20T10:39:08.282Z,8.91
2023-02-20T10:41:55.273Z,8.92
2023-02-20T10:44:52.543Z,8.91
2023-02-20T10:47:31.105Z,8.99
2023-02-20T10:50:07.132Z,8.99
2023-02-20T10:52:43.662Z,8.98
2023-02-20T10:55:26.028Z,8.99
2023-02-20T10:58:14.920Z,9.00
2023-02-20T11:01:06.733Z,8.97
2023-02-20T11:04:06.954Z,8.99
2023-02-20T11:06:39.980Z,8.97
2023-02-20T11:09:08.376Z,9.01
2023-02-20T11:11:36.250Z,9.01
2023-02-20T11:14:12.695Z,9.01
2023-02-20T11:16:57.349Z,9.01
2023-02-20T11:19:34.074Z,9.03
2023-02-20T11:22:00.673Z,9.03
2023-02-20T11:24:35.884Z,9.04
2023-02-20T11:27:20.717Z,9.04
2023-02-20T11:29:53.975Z,9.06
2023-02-20T11:32:26.396Z,9.03
2023-02-20T11:35:12.824Z,9.06
2023-02-20T11:37:52.753Z,9.06
2023-02-20T11:40:33.039Z,9.07
2023-02-20T11:43:18.369Z,9.07
2023-02-20T11:45:44.894Z,9.08
2023-02-20T11:48:15.066Z,9.08
2023-02-20T11:50:50.228Z,9.11
2023-02-20T11:53:26.370Z,9.10
2023-02-20T11:56:14.750Z,9.14
2023-02-20T11:58:42.753Z,9.14
2023-02-20T12:01:33.916Z,9.09
2023-02-20T12:04:01.807Z,9.10
2023-02-20T12:06:42.634Z,9.10
2023-02-20T12:09:18.866Z,9.09
2023-02-20T12:11:45.453Z,9.12
2023-02-20T12:14:15.358Z,9.12
2023-02-20T12:17:11.327Z,9.14
2023-02-20T12:20:01.502Z,9.11
2023-02-20T12:22:36.672Z,9.11
2023-02-20T12:25:41.577Z,9.13
2023-02-20T12:28:45.795Z,9.15
2023-02-20T12:31:46.723Z,9.18
2023-02-20T12:34:41.268Z,9.17
2023-02-20T12:37:32.812Z,9.20
2023-02-20T12:40:22.480Z,9.20
2023-02-20T12:43:20.050Z,9.27
2023-02-20T12:46:16.957Z,9.25
2023-02-20T12:49:40.162Z,9.28
2023-02-20T12:52:38.701Z,9.28
2023-02-20T12:55:47.018Z,9.33
2023-02-20T12:58:38.428Z,9.34
2023-02-20T13:01:14.274Z,9.37
2023-02-20T13:04:04.299Z,9.38
2023-02-20T13:06:40.152Z,9.40
2023-02-20T13:09:20.489Z,9.44
2023-02-20T13:11:56.368Z,9.48
2023-02-20T13:14:40.779Z,9.52
2023-02-20T13:17:35.749Z,9.53
2023-02-20T13:20:18.114Z,9.56
2023-02-20T13:22:59.208Z,9.56
2023-02-20T13:25:31.634Z,9.58
2023-02-20T13:28:45.405Z,9.58
2023-02-20T13:31:21.803Z,9.56
2023-02-20T13:34:13.239Z,9.56
2023-02-20T13:36:46.563Z,9.54
2023-02-20T13:39:21.827Z,9.53
2023-02-20T13:41:54.501Z,9.57
2023-02-20T13:44:36.526Z,9.55
2023-02-20T13:47:22.149Z,9.56
2023-02-20T13:49:58.359Z,9.57
2023-02-20T13:52:35.710Z,9.60
2023-02-20T13:55:10.316Z,9.61
2023-02-20T13:57:46.979Z,9.59
2023-02-20T14:00:45.365Z,9.63
2023-02-20T14:03:19.960Z,9.61
2023-02-20T14:06:00.541Z,9.60
2023-02-20T14:08:27.102Z,9.60
2023-02-20T14:10:53.648Z,9.56
2023-02-20T14:13:38.989Z,9.57
2023-02-20T14:16:27.791Z,9.56
2023-02-20T14:19:14.837Z,9.54
2023-02-20T14:21:41.466Z,9.56
2023-02-20T14:24:22.200Z,9.55
2023-02-20T14:26:51.745Z,9.50
2023-02-20T14:29:28.678Z,9.51
2023-02-20T14:31:58.267Z,9.47
2023-02-20T14:34:35.584Z,9.44
2023-02-20T14:37:23.589Z,9.43
2023-02-20T14:39:55.907Z,9.39
2023-02-20T14:42:25.228Z,9.38
2023-02-20T14:45:01.543Z,9.40
2023-02-20T14:47:28.644Z,9.39
2023-02-20T14:50:20.194Z,9.39
2023-02-20T14:52:46.973Z,9.36
2023-02-20T14:55:18.757Z,9.36
2023-02-20T14:57:45.343Z,9.38
2023-02-20T15:00:25.373Z,9.30
2023-02-20T15:02:55.694Z,9.32
2023-02-20T15:05:34.582Z,9.29
2023-02-20T15:08:18.064Z,9.28
2023-02-20T15:10:53.589Z,9.27
2023-02-20T15:13:29.689Z,9.30
2023-02-20T15:16:18.219Z,9.25
2023-02-20T15:18:48.882Z,9.26
2023-02-20T15:21:32.306Z,9.23
2023-02-20T15:24:27.532Z,9.24
2023-02-20T15:26:54.148Z,9.25
2023-02-20T15:29:27.405Z,9.24
2023-02-20T15:32:14.051Z,9.22
2023-02-20T15:34:41.365Z,9.22
2023-02-20T15:37:22.802Z,9.21
2023-02-20T15:39:54.509Z,9.22
2023-02-20T15:42:23.681Z,9.19
2023-02-20T15:44:50.868Z,9.19
2023-02-20T15:47:17.398Z,9.15
2023-02-20T15:49:44.002Z,9.18
2023-02-20T15:52:18.736Z,9.15
2023-02-20T15:54:54.335Z,9.13
2023-02-20T15:57:21.139Z,9.16
2023-02-20T15:59:48.530Z,9.16
2023-02-20T16:02:20.452Z,9.13
2023-02-20T16:04:49.493Z,9.13
2023-02-20T16:07:18.614Z,9.13
2023-02-20T16:09:46.051Z,9.13
2023-02-20T16:12:19.930Z,9.11
2023-02-20T16:14:48.357Z,9.09
2023-02-20T16:17:23.330Z,9.07
2023-02-20T16:19:49.903Z,9.07
2023-02-20T16:22:16.507Z,9.05
2023-02-20T16:24:44.748Z,9.05
2023-02-20T16:27:24.897Z,9.07
2023-02-20T16:29:53.993Z,9.07
2023-02-20T16:32:28.984Z,9.04
2023-02-20T16:34:58.073Z,9.06
2023-02-20T16:37:25.505Z,9.04
2023-02-20T16:39:52.323Z,9.06
2023-02-20T16:42:29.039Z,9.03
2023-02-20T16:44:55.845Z,9.04
2023-02-20T16:47:25.740Z,9.01
2023-02-20T16:49:52.649Z,9.01
2023-02-20T16:52:27.336Z,9.00
2023-02-20T16:54:55.748Z,8.98
2023-02-20T16:57:24.237Z,8.97
2023-02-20T16:59:55.478Z,9.00
2023-02-20T17:02:28.765Z,8.99
2023-02-20T17:04:56.687Z,8.95
2023-02-20T17:07:24.373Z,8.94
2023-02-20T17:09:51.161Z,8.95
2023-02-20T17:12:20.715Z,8.93
2023-02-20T17:14:48.163Z,8.94
2023-02-20T17:17:16.013Z,8.92
2023-02-20T17:19:43.561Z,8.94
2023-02-20T17:22:12.675Z,8.94
2023-02-20T17:24:43.987Z,8.93
2023-02-20T17:27:12.205Z,8.93
2023-02-20T17:29:41.555Z,8.92
2023-02-20T17:32:08.412Z,8.93
2023-02-20T17:34:34.994Z,8.91
2023-02-20T17:37:01.630Z,8.90
2023-02-20T17:39:28.264Z,8.91
2023-02-20T17:41:56.097Z,8.89
2023-02-20T17:44:29.949Z,8.88
2023-02-20T17:46:59.328Z,8.89
2023-02-20T17:49:27.661Z,8.87
2023-02-20T17:51:58.923Z,8.84
2023-02-20T17:54:33.972Z,8.86
2023-02-20T17:57:00.789Z,8.84
2023-02-20T17:59:27.608Z,8.84
2023-02-20T18:01:54.708Z,8.81
2023-02-20T18:04:21.565Z,8.79
2023-02-20T18:06:48.649Z,8.76
2023-02-20T18:09:18.182Z,8.72
2023-02-20T18:11:46.160Z,8.70
2023-02-20T18:14:13.911Z,8.67
2023-02-20T18:16:40.636Z,8.65
2023-02-20T18:19:10.273Z,8.61
2023-02-20T18:21:38.612Z,8.61
2023-02-20T18:24:05.212Z,8.60
2023-02-20T18:26:31.741Z,8.62
2023-02-20T18:28:59.049Z,8.63
2023-02-20T18:31:25.949Z,8.62
2023-02-20T18:33:55.369Z,8.60
2023-02-20T18:36:22.248Z,8.60
2023-02-20T18:38:48.945Z,8.63
2023-02-20T18:41:15.865Z,8.61
2023-02-20T18:43:46.637Z,8.61
2023-02-20T18:46:23.675Z,8.59
2023-02-20T18:48:50.318Z,8.57
2023-02-20T18:51:16.919Z,8.57
2023-02-20T18:53:45.286Z,8.56
2023-02-20T18:56:13.102Z,8.56
2023-02-20T18:58:39.992Z,8.56
2023-02-20T19:01:06.668Z,8.56
2023-02-20T19:03:33.381Z,8.58
2023-02-20T19:06:00.803Z,8.56
2023-02-20T19:08:27.399Z,8.55
2023-02-20T19:10:54.152Z,8.55
2023-02-20T19:13:20.712Z,8.55
2023-02-20T19:15:47.335Z,8.56
2023-02-20T19:18:13.963Z,8.57
2023-02-20T19:20:40.533Z,8.56
2023-02-20T19:23:07.069Z,8.56
2023-02-20T19:25:33.745Z,8.57
2023-02-20T19:28:00.459Z,8.54
2023-02-20T19:30:27.118Z,8.55
2023-02-20T19:32:53.849Z,8.55
2023-02-20T19:35:20.640Z,8.56
2023-02-20T19:37:47.221Z,8.54
2023-02-20T19:40:14.042Z,8.55
2023-02-20T19:42:41.269Z,8.55
2023-02-20T19:45:08.212Z,8.56
2023-02-20T19:47:34.886Z,8.54
2023-02-20T19:50:01.742Z,8.55
2023-02-20T19:52:28.267Z,8.55
2023-02-20T19:54:54.845Z,8.54
2023-02-20T19:57:21.507Z,8.53
2023-02-20T19:59:48.284Z,8.54
2023-02-20T20:02:14.964Z,8.52
2023-02-20T20:04:43.902Z,8.53
2023-02-20T20:07:10.895Z,8.53
2023-02-20T20:09:38.180Z,8.56
2023-02-20T20:12:26.723Z,8.53
2023-02-20T20:14:53.773Z,8.54
2023-02-20T20:17:20.421Z,8.54
2023-02-20T20:19:58.487Z,8.56
2023-02-20T20:22:26.884Z,8.58
2023-02-20T20:24:53.543Z,8.57
2023-02-20T20:27:20.859Z,8.59
2023-02-20T20:29:50.868Z,8.56
2023-02-20T20:32:19.411Z,8.56
2023-02-20T20:34:55.490Z,8.56
2023-02-20T20:37:24.740Z,8.57
2023-02-20T20:39:52.220Z,8.56
2023-02-20T20:42:26.099Z,8.57
2023-02-20T20:44:56.511Z,8.58
2023-02-20T20:47:25.177Z,8.59
2023-02-20T20:49:51.847Z,8.59
2023-02-20T20:52:19.093Z,8.60
2023-02-20T20:54:53.860Z,8.60
2023-02-20T20:57:22.908Z,8.61
2023-02-20T20:59:51.650Z,8.61
2023-02-20T21:02:20.581Z,8.60
2023-02-20T21:04:52.937Z,8.62
2023-02-20T21:07:22.423Z,8.61
2023-02-20T21:09:48.992Z,8.61
2023-02-20T21:12:15.633Z,8.62
2023-02-20T21:14:43.325Z,8.66
2023-02-20T21:17:13.155Z,8.62
2023-02-20T21:19:41.118Z,8.62
2023-02-20T21:22:07.905Z,8.65
2023-02-20T21:24:36.304Z,8.64
2023-02-20T21:27:04.365Z,8.60
2023-02-20T21:29:31.239Z,8.63
2023-02-20T21:31:57.843Z,8.64
2023-02-20T21:34:25.848Z,8.66
2023-02-20T21:36:53.424Z,8.65
2023-02-20T21:39:19.984Z,8.65
2023-02-20T21:42:05.169Z,8.65
2023-02-20T21:44:31.822Z,8.65
2023-02-20T21:47:02.466Z,8.67
2023-02-20T21:49:31.392Z,8.67
2023-02-20T21:51:59.089Z,8.68
2023-02-20T21:54:29.876Z,8.69
2023-02-20T21:56:58.047Z,8.68
2023-02-20T21:59:24.904Z,8.69
2023-02-20T22:01:52.546Z,8.70
2023-02-20T22:04:20.317Z,8.71
2023-02-20T22:07:06.196Z,8.71
2023-02-20T22:09:52.141Z,8.72
2023-02-20T22:12:37.580Z,8.72
2023-02-20T22:15:23.053Z,8.72
2023-02-20T22:18:08.965Z,8.74
2023-02-20T22:20:53.901Z,8.72
2023-02-20T22:23:39.480Z,8.73
2023-02-20T22:26:24.309Z,8.73
2023-02-20T22:29:09.289Z,8.72
2023-02-20T22:31:54.121Z,8.72
2023-02-20T22:34:39.336Z,8.74
2023-02-20T22:37:24.563Z,8.71
2023-02-20T22:40:09.292Z,8.71
2023-02-20T22:42:54.192Z,8.71
2023-02-20T22:45:39.174Z,8.72
2023-02-20T22:48:24.105Z,8.73
2023-02-20T22:51:09.039Z,8.73
2023-02-20T22:53:53.915Z,8.73
2023-02-20T22:56:41.284Z,8.73
2023-02-20T22:59:26.238Z,8.73
2023-02-20T23:02:12.200Z,8.72
2023-02-20T23:04:57.292Z,8.74
2023-02-20T23:07:42.836Z,8.73
2023-02-20T23:10:28.288Z,8.74
2023-02-20T23:13:13.081Z,8.72
2023-02-20T23:15:58.057Z,8.71
2023-02-20T23:18:43.285Z,8.72
2023-02-20T23:21:28.329Z,8.73
2023-02-20T23:24:13.233Z,8.71
2023-02-20T23:26:58.619Z,8.72
2023-02-20T23:29:43.613Z,8.74
2023-02-20T23:32:28.401Z,8.73
2023-02-20T23:35:13.278Z,8.72
2023-02-20T23:37:58.032Z,8.73
2023-02-20T23:40:43.472Z,8.71
2023-02-20T23:43:28.263Z,8.72
2023-02-20T23:46:13.785Z,8.70
2023-02-20T23:48:58.560Z,8.70
2023-02-20T23:51:43.329Z,8.70
2023-02-20T23:54:28.595Z,8.69
2023-02-20T23:57:13.475Z,8.72
2023-02-20T23:59:58.467Z,8.72
